Pagina principale
METAR-TAF:

METAR-TAF

Aeroporti :

Nakhchivan, Azerbaigian

latitudine: 39-11-19N, longitudine: 045-27-30E, altezza: 873 m

Osservazione

Il bollettino è stato emesso 24 minuti fa, alle 05:30 UTC
Vento 4 kt da nord-est
Temperature 0°C
Umidità 64%
Pressione 1028 hPa
Visibilità 10 km o più

METAR: UBBN 180530Z 04004KT 9999 NSC M00/M06 Q1028 R14R/CLRD// NOSIG RMK MT OP QFE695

Ora: 09:54 (05:54 UTC)

Previsione

Il bollettino è stato emesso 52 minuti fa, alle 05:02 UTC
Previsione valida dal 18 alle 06 UTC al 19 alle 06 UTC
Vento 4 kt da direzioni variabili
Visibilità 10 km o più
Poco nuvoloso ad un'altezza di 5000 ft
Nubi sparse ad un'altezza di 10000 ft
Temporaneamente
dal 18 alle 06 UTC al 18 alle 12 UTC
Vento 8 kt da ovest/sud-ovest
Temporaneamente
dal 18 alle 20 UTC al 19 alle 04 UTC
Vento 8 kt da nord/nord-est

TAF: UBBN 180502Z 1806/1906 VRB04KT 9999 FEW050 SCT100 TX10/1812Z TNM04/1902Z TEMPO 1806/1812 24008KT TEMPO 1820/1904 02008KT

Osservazioni e previsioni meteorologiche di più di 4000 aeroporti (messaggi METAR e TAF).

Le stazioni disponibili sono rappresentate dai dischi gialli e rossi sulla carta.

Puntare il mouse per vedere il nome della stazione.

Clicca sopra per visualizzare le osservazioni e previsioni meteorologiche.

Per cambiare la mappa : fare clic sui pulsanti verdi con una croce nera per ingrandire, il pulsante verde con un trattino per diminuire, o sulla freccia verde per le mappe adiacenti.


METAR-TAF: